sensor_id;sensor_type;location;lat;lon;timestamp;P1;durP1;ratioP1;P2;durP2;ratioP2
34019;SDS011;20895;51.034;3.742;2022-12-11T00:02:15;31.17;;;19.08;;
34019;SDS011;20895;51.034;3.742;2022-12-11T00:04:40;31.70;;;19.10;;
34019;SDS011;20895;51.034;3.742;2022-12-11T00:07:05;31.00;;;18.25;;
34019;SDS011;20895;51.034;3.742;2022-12-11T00:09:31;33.17;;;17.67;;
34019;SDS011;20895;51.034;3.742;2022-12-11T00:11:56;28.33;;;18.77;;
34019;SDS011;20895;51.034;3.742;2022-12-11T00:14:21;30.23;;;19.83;;
34019;SDS011;20895;51.034;3.742;2022-12-11T00:16:47;33.20;;;19.77;;
34019;SDS011;20895;51.034;3.742;2022-12-11T00:19:12;33.42;;;18.67;;
34019;SDS011;20895;51.034;3.742;2022-12-11T00:21:38;35.58;;;20.65;;
34019;SDS011;20895;51.034;3.742;2022-12-11T00:24:03;33.63;;;19.55;;
34019;SDS011;20895;51.034;3.742;2022-12-11T00:26:28;36.67;;;21.23;;
34019;SDS011;20895;51.034;3.742;2022-12-11T00:28:54;33.95;;;20.33;;
34019;SDS011;20895;51.034;3.742;2022-12-11T00:31:20;32.63;;;19.55;;
34019;SDS011;20895;51.034;3.742;2022-12-11T00:33:46;33.38;;;19.65;;
34019;SDS011;20895;51.034;3.742;2022-12-11T00:36:24;41.67;;;21.02;;
34019;SDS011;20895;51.034;3.742;2022-12-11T00:38:50;39.13;;;21.80;;
34019;SDS011;20895;51.034;3.742;2022-12-11T00:41:15;38.25;;;21.77;;
34019;SDS011;20895;51.034;3.742;2022-12-11T00:43:41;37.53;;;21.58;;
34019;SDS011;20895;51.034;3.742;2022-12-11T00:46:06;40.40;;;21.58;;
34019;SDS011;20895;51.034;3.742;2022-12-11T00:48:32;35.60;;;21.40;;
34019;SDS011;20895;51.034;3.742;2022-12-11T00:50:57;40.00;;;22.55;;
34019;SDS011;20895;51.034;3.742;2022-12-11T00:53:22;36.30;;;19.35;;
34019;SDS011;20895;51.034;3.742;2022-12-11T00:55:48;33.83;;;19.35;;
34019;SDS011;20895;51.034;3.742;2022-12-11T00:58:13;39.20;;;21.45;;
34019;SDS011;20895;51.034;3.742;2022-12-11T01:00:39;38.33;;;20.98;;
34019;SDS011;20895;51.034;3.742;2022-12-11T01:03:05;33.97;;;19.70;;
34019;SDS011;20895;51.034;3.742;2022-12-11T01:05:30;32.15;;;19.13;;
34019;SDS011;20895;51.034;3.742;2022-12-11T01:07:56;39.83;;;21.77;;
34019;SDS011;20895;51.034;3.742;2022-12-11T01:10:21;32.90;;;19.52;;
34019;SDS011;20895;51.034;3.742;2022-12-11T01:15:14;40.83;;;21.60;;
34019;SDS011;20895;51.034;3.742;2022-12-11T01:17:39;35.88;;;20.92;;
34019;SDS011;20895;51.034;3.742;2022-12-11T01:20:05;38.10;;;21.27;;
34019;SDS011;20895;51.034;3.742;2022-12-11T01:22:30;40.95;;;22.13;;
34019;SDS011;20895;51.034;3.742;2022-12-11T01:24:55;38.20;;;20.00;;
34019;SDS011;20895;51.034;3.742;2022-12-11T01:27:21;31.23;;;17.75;;
34019;SDS011;20895;51.034;3.742;2022-12-11T01:29:46;36.95;;;19.23;;
34019;SDS011;20895;51.034;3.742;2022-12-11T01:32:11;32.25;;;17.55;;
34019;SDS011;20895;51.034;3.742;2022-12-11T01:34:37;29.55;;;17.73;;
34019;SDS011;20895;51.034;3.742;2022-12-11T01:37:03;31.27;;;19.45;;
34019;SDS011;20895;51.034;3.742;2022-12-11T01:39:28;33.83;;;18.80;;
34019;SDS011;20895;51.034;3.742;2022-12-11T01:41:57;31.33;;;18.80;;
34019;SDS011;20895;51.034;3.742;2022-12-11T01:46:48;32.15;;;18.42;;
34019;SDS011;20895;51.034;3.742;2022-12-11T01:49:14;31.48;;;17.27;;
34019;SDS011;20895;51.034;3.742;2022-12-11T01:51:43;34.15;;;18.20;;
34019;SDS011;20895;51.034;3.742;2022-12-11T01:54:10;30.25;;;19.08;;
34019;SDS011;20895;51.034;3.742;2022-12-11T01:56:36;36.45;;;20.48;;
34019;SDS011;20895;51.034;3.742;2022-12-11T01:59:04;32.28;;;18.77;;
34019;SDS011;20895;51.034;3.742;2022-12-11T02:01:41;32.63;;;20.20;;
34019;SDS011;20895;51.034;3.742;2022-12-11T02:04:09;34.63;;;20.15;;
34019;SDS011;20895;51.034;3.742;2022-12-11T02:06:36;35.55;;;20.38;;
34019;SDS011;20895;51.034;3.742;2022-12-11T02:09:02;31.83;;;19.45;;
34019;SDS011;20895;51.034;3.742;2022-12-11T02:11:32;36.88;;;22.48;;
34019;SDS011;20895;51.034;3.742;2022-12-11T02:16:30;33.97;;;20.75;;
34019;SDS011;20895;51.034;3.742;2022-12-11T02:19:12;34.03;;;20.63;;
34019;SDS011;20895;51.034;3.742;2022-12-11T02:21:42;34.22;;;20.55;;
34019;SDS011;20895;51.034;3.742;2022-12-11T02:29:43;38.22;;;21.80;;
34019;SDS011;20895;51.034;3.742;2022-12-11T02:32:12;38.45;;;22.00;;
34019;SDS011;20895;51.034;3.742;2022-12-11T02:34:41;38.20;;;22.35;;
34019;SDS011;20895;51.034;3.742;2022-12-11T02:37:08;37.70;;;22.52;;
34019;SDS011;20895;51.034;3.742;2022-12-11T02:39:35;38.95;;;22.15;;
34019;SDS011;20895;51.034;3.742;2022-12-11T02:42:01;35.80;;;22.42;;
34019;SDS011;20895;51.034;3.742;2022-12-11T02:44:28;41.50;;;22.67;;
34019;SDS011;20895;51.034;3.742;2022-12-11T02:46:54;39.92;;;20.77;;
34019;SDS011;20895;51.034;3.742;2022-12-11T02:49:20;40.85;;;24.33;;
34019;SDS011;20895;51.034;3.742;2022-12-11T02:51:45;36.33;;;22.00;;
34019;SDS011;20895;51.034;3.742;2022-12-11T02:54:12;42.60;;;24.25;;
34019;SDS011;20895;51.034;3.742;2022-12-11T02:56:40;40.25;;;23.67;;
34019;SDS011;20895;51.034;3.742;2022-12-11T02:59:12;39.80;;;24.65;;
34019;SDS011;20895;51.034;3.742;2022-12-11T03:01:38;40.50;;;22.67;;
34019;SDS011;20895;51.034;3.742;2022-12-11T03:04:03;42.15;;;24.58;;
34019;SDS011;20895;51.034;3.742;2022-12-11T03:06:33;43.88;;;25.00;;
34019;SDS011;20895;51.034;3.742;2022-12-11T03:09:00;43.35;;;23.67;;
34019;SDS011;20895;51.034;3.742;2022-12-11T03:11:25;41.60;;;23.77;;
34019;SDS011;20895;51.034;3.742;2022-12-11T03:13:50;39.22;;;23.08;;
34019;SDS011;20895;51.034;3.742;2022-12-11T03:18:51;38.65;;;19.88;;
34019;SDS011;20895;51.034;3.742;2022-12-11T03:21:27;37.83;;;22.13;;
34019;SDS011;20895;51.034;3.742;2022-12-11T03:23:56;38.50;;;22.08;;
34019;SDS011;20895;51.034;3.742;2022-12-11T03:26:27;40.03;;;21.83;;
34019;SDS011;20895;51.034;3.742;2022-12-11T03:28:58;40.75;;;21.42;;
34019;SDS011;20895;51.034;3.742;2022-12-11T03:31:26;36.53;;;21.52;;
34019;SDS011;20895;51.034;3.742;2022-12-11T03:33:54;37.42;;;19.88;;
34019;SDS011;20895;51.034;3.742;2022-12-11T03:36:23;35.88;;;20.55;;
34019;SDS011;20895;51.034;3.742;2022-12-11T03:38:53;32.00;;;20.02;;
34019;SDS011;20895;51.034;3.742;2022-12-11T03:41:21;38.88;;;20.73;;
34019;SDS011;20895;51.034;3.742;2022-12-11T03:43:47;36.63;;;20.38;;
34019;SDS011;20895;51.034;3.742;2022-12-11T03:46:13;31.88;;;18.23;;
34019;SDS011;20895;51.034;3.742;2022-12-11T03:48:40;30.35;;;19.08;;
34019;SDS011;20895;51.034;3.742;2022-12-11T03:51:07;35.33;;;19.58;;
34019;SDS011;20895;51.034;3.742;2022-12-11T03:53:35;28.90;;;17.90;;
34019;SDS011;20895;51.034;3.742;2022-12-11T03:56:01;32.53;;;19.58;;
34019;SDS011;20895;51.034;3.742;2022-12-11T03:58:27;30.08;;;17.48;;
34019;SDS011;20895;51.034;3.742;2022-12-11T04:00:53;27.90;;;17.05;;
34019;SDS011;20895;51.034;3.742;2022-12-11T04:03:18;33.05;;;17.63;;
34019;SDS011;20895;51.034;3.742;2022-12-11T04:05:45;28.73;;;18.23;;
34019;SDS011;20895;51.034;3.742;2022-12-11T04:08:10;30.20;;;16.98;;
34019;SDS011;20895;51.034;3.742;2022-12-11T04:10:35;30.20;;;18.55;;
34019;SDS011;20895;51.034;3.742;2022-12-11T04:13:01;29.33;;;16.67;;
34019;SDS011;20895;51.034;3.742;2022-12-11T04:15:26;27.85;;;18.30;;
34019;SDS011;20895;51.034;3.742;2022-12-11T04:17:51;27.17;;;16.70;;
34019;SDS011;20895;51.034;3.742;2022-12-11T04:20:35;31.05;;;18.58;;
34019;SDS011;20895;51.034;3.742;2022-12-11T04:23:19;28.98;;;16.85;;
34019;SDS011;20895;51.034;3.742;2022-12-11T04:26:03;25.63;;;17.08;;
34019;SDS011;20895;51.034;3.742;2022-12-11T04:28:29;25.40;;;16.25;;
34019;SDS011;20895;51.034;3.742;2022-12-11T04:30:54;29.13;;;17.52;;
34019;SDS011;20895;51.034;3.742;2022-12-11T04:33:19;29.13;;;17.33;;
34019;SDS011;20895;51.034;3.742;2022-12-11T04:35:44;28.13;;;16.95;;
34019;SDS011;20895;51.034;3.742;2022-12-11T04:38:10;32.25;;;19.50;;
34019;SDS011;20895;51.034;3.742;2022-12-11T04:40:35;28.33;;;17.70;;
34019;SDS011;20895;51.034;3.742;2022-12-11T04:43:00;29.50;;;17.98;;
34019;SDS011;20895;51.034;3.742;2022-12-11T04:45:25;30.25;;;17.35;;
34019;SDS011;20895;51.034;3.742;2022-12-11T04:47:50;25.75;;;16.60;;
34019;SDS011;20895;51.034;3.742;2022-12-11T04:50:16;25.48;;;16.52;;
34019;SDS011;20895;51.034;3.742;2022-12-11T04:52:41;29.48;;;18.73;;
34019;SDS011;20895;51.034;3.742;2022-12-11T04:55:07;27.55;;;18.02;;
34019;SDS011;20895;51.034;3.742;2022-12-11T04:57:32;40.30;;;20.77;;
34019;SDS011;20895;51.034;3.742;2022-12-11T04:59:58;29.17;;;17.42;;
34019;SDS011;20895;51.034;3.742;2022-12-11T05:02:24;26.80;;;16.70;;
34019;SDS011;20895;51.034;3.742;2022-12-11T05:04:49;33.33;;;19.30;;
34019;SDS011;20895;51.034;3.742;2022-12-11T05:07:14;31.00;;;18.95;;
34019;SDS011;20895;51.034;3.742;2022-12-11T05:09:40;32.63;;;20.25;;
34019;SDS011;20895;51.034;3.742;2022-12-11T05:12:05;32.00;;;17.67;;
34019;SDS011;20895;51.034;3.742;2022-12-11T05:14:30;32.28;;;19.80;;
34019;SDS011;20895;51.034;3.742;2022-12-11T05:16:59;34.83;;;18.63;;
34019;SDS011;20895;51.034;3.742;2022-12-11T05:19:24;29.75;;;18.65;;
34019;SDS011;20895;51.034;3.742;2022-12-11T05:21:50;34.65;;;20.70;;
34019;SDS011;20895;51.034;3.742;2022-12-11T05:24:15;32.65;;;20.58;;
34019;SDS011;20895;51.034;3.742;2022-12-11T05:26:40;33.33;;;21.90;;
34019;SDS011;20895;51.034;3.742;2022-12-11T05:29:05;38.90;;;20.98;;
34019;SDS011;20895;51.034;3.742;2022-12-11T05:31:31;34.10;;;20.88;;
34019;SDS011;20895;51.034;3.742;2022-12-11T05:33:56;36.78;;;22.55;;
34019;SDS011;20895;51.034;3.742;2022-12-11T05:36:22;34.45;;;23.05;;
34019;SDS011;20895;51.034;3.742;2022-12-11T05:38:48;35.25;;;21.83;;
34019;SDS011;20895;51.034;3.742;2022-12-11T05:41:14;36.10;;;21.92;;
34019;SDS011;20895;51.034;3.742;2022-12-11T05:43:39;32.35;;;20.20;;
34019;SDS011;20895;51.034;3.742;2022-12-11T05:46:08;39.17;;;23.05;;
34019;SDS011;20895;51.034;3.742;2022-12-11T05:48:33;40.75;;;22.80;;
34019;SDS011;20895;51.034;3.742;2022-12-11T05:51:00;35.70;;;20.15;;
34019;SDS011;20895;51.034;3.742;2022-12-11T05:53:25;35.65;;;21.15;;
34019;SDS011;20895;51.034;3.742;2022-12-11T05:55:51;36.97;;;23.33;;
34019;SDS011;20895;51.034;3.742;2022-12-11T05:58:16;39.63;;;24.17;;
34019;SDS011;20895;51.034;3.742;2022-12-11T06:00:42;36.60;;;22.48;;
34019;SDS011;20895;51.034;3.742;2022-12-11T06:03:07;42.15;;;24.77;;
34019;SDS011;20895;51.034;3.742;2022-12-11T06:05:36;37.67;;;26.52;;
34019;SDS011;20895;51.034;3.742;2022-12-11T06:08:02;41.35;;;24.65;;
34019;SDS011;20895;51.034;3.742;2022-12-11T06:10:27;36.28;;;22.85;;
34019;SDS011;20895;51.034;3.742;2022-12-11T06:12:52;38.63;;;24.15;;
34019;SDS011;20895;51.034;3.742;2022-12-11T06:15:17;37.85;;;23.70;;
34019;SDS011;20895;51.034;3.742;2022-12-11T06:17:42;39.95;;;25.23;;
34019;SDS011;20895;51.034;3.742;2022-12-11T06:20:08;47.92;;;26.35;;
34019;SDS011;20895;51.034;3.742;2022-12-11T06:22:33;47.17;;;27.00;;
34019;SDS011;20895;51.034;3.742;2022-12-11T06:24:59;38.55;;;23.98;;
34019;SDS011;20895;51.034;3.742;2022-12-11T06:27:24;39.08;;;25.98;;
34019;SDS011;20895;51.034;3.742;2022-12-11T06:29:49;44.13;;;26.33;;
34019;SDS011;20895;51.034;3.742;2022-12-11T06:32:14;45.63;;;26.05;;
34019;SDS011;20895;51.034;3.742;2022-12-11T06:34:40;44.15;;;25.63;;
34019;SDS011;20895;51.034;3.742;2022-12-11T06:37:05;39.58;;;23.25;;
34019;SDS011;20895;51.034;3.742;2022-12-11T06:39:31;48.15;;;25.65;;
34019;SDS011;20895;51.034;3.742;2022-12-11T06:41:56;43.05;;;25.88;;
34019;SDS011;20895;51.034;3.742;2022-12-11T06:44:21;42.33;;;24.48;;
34019;SDS011;20895;51.034;3.742;2022-12-11T06:46:47;40.42;;;25.95;;
34019;SDS011;20895;51.034;3.742;2022-12-11T06:49:12;40.58;;;24.38;;
34019;SDS011;20895;51.034;3.742;2022-12-11T06:51:37;42.13;;;25.35;;
34019;SDS011;20895;51.034;3.742;2022-12-11T06:54:03;40.50;;;22.35;;
34019;SDS011;20895;51.034;3.742;2022-12-11T06:56:28;45.30;;;25.73;;
34019;SDS011;20895;51.034;3.742;2022-12-11T06:58:53;42.88;;;25.90;;
34019;SDS011;20895;51.034;3.742;2022-12-11T07:03:46;41.67;;;25.58;;
34019;SDS011;20895;51.034;3.742;2022-12-11T07:06:11;39.67;;;23.25;;
34019;SDS011;20895;51.034;3.742;2022-12-11T07:08:37;43.38;;;23.30;;
34019;SDS011;20895;51.034;3.742;2022-12-11T07:11:03;41.53;;;23.60;;
34019;SDS011;20895;51.034;3.742;2022-12-11T07:13:28;44.20;;;23.55;;
34019;SDS011;20895;51.034;3.742;2022-12-11T07:15:54;43.97;;;25.58;;
34019;SDS011;20895;51.034;3.742;2022-12-11T07:18:19;44.53;;;24.83;;
34019;SDS011;20895;51.034;3.742;2022-12-11T07:20:44;40.80;;;23.77;;
34019;SDS011;20895;51.034;3.742;2022-12-11T07:23:09;40.42;;;24.05;;
34019;SDS011;20895;51.034;3.742;2022-12-11T07:25:35;38.67;;;24.88;;
34019;SDS011;20895;51.034;3.742;2022-12-11T07:28:01;42.92;;;25.20;;
34019;SDS011;20895;51.034;3.742;2022-12-11T07:30:26;45.25;;;23.80;;
34019;SDS011;20895;51.034;3.742;2022-12-11T07:32:51;43.15;;;24.98;;
34019;SDS011;20895;51.034;3.742;2022-12-11T07:35:16;43.45;;;24.88;;
34019;SDS011;20895;51.034;3.742;2022-12-11T07:37:41;47.10;;;25.25;;
34019;SDS011;20895;51.034;3.742;2022-12-11T07:40:07;37.72;;;23.58;;
34019;SDS011;20895;51.034;3.742;2022-12-11T07:42:32;40.85;;;23.17;;
34019;SDS011;20895;51.034;3.742;2022-12-11T07:44:58;38.33;;;23.17;;
34019;SDS011;20895;51.034;3.742;2022-12-11T07:47:23;42.10;;;22.75;;
34019;SDS011;20895;51.034;3.742;2022-12-11T07:49:48;40.65;;;24.17;;
34019;SDS011;20895;51.034;3.742;2022-12-11T07:52:13;43.83;;;25.83;;
34019;SDS011;20895;51.034;3.742;2022-12-11T07:54:39;44.58;;;26.17;;
34019;SDS011;20895;51.034;3.742;2022-12-11T07:57:04;43.00;;;25.30;;
34019;SDS011;20895;51.034;3.742;2022-12-11T07:59:30;42.40;;;24.75;;
34019;SDS011;20895;51.034;3.742;2022-12-11T08:01:55;40.03;;;22.52;;
34019;SDS011;20895;51.034;3.742;2022-12-11T08:04:21;39.80;;;22.83;;
34019;SDS011;20895;51.034;3.742;2022-12-11T08:06:46;41.60;;;23.10;;
34019;SDS011;20895;51.034;3.742;2022-12-11T08:09:11;37.70;;;23.52;;
34019;SDS011;20895;51.034;3.742;2022-12-11T08:11:38;41.97;;;24.08;;
34019;SDS011;20895;51.034;3.742;2022-12-11T08:14:03;41.45;;;24.10;;
34019;SDS011;20895;51.034;3.742;2022-12-11T08:16:30;42.80;;;24.00;;
34019;SDS011;20895;51.034;3.742;2022-12-11T08:18:56;38.70;;;24.08;;
34019;SDS011;20895;51.034;3.742;2022-12-11T08:21:22;36.20;;;21.98;;
34019;SDS011;20895;51.034;3.742;2022-12-11T08:23:48;39.65;;;22.85;;
34019;SDS011;20895;51.034;3.742;2022-12-11T08:26:14;38.05;;;21.48;;
34019;SDS011;20895;51.034;3.742;2022-12-11T08:28:40;37.28;;;22.08;;
34019;SDS011;20895;51.034;3.742;2022-12-11T08:31:06;37.35;;;20.83;;
34019;SDS011;20895;51.034;3.742;2022-12-11T08:33:32;38.28;;;21.33;;
34019;SDS011;20895;51.034;3.742;2022-12-11T08:36:00;38.25;;;23.25;;
34019;SDS011;20895;51.034;3.742;2022-12-11T08:38:25;38.72;;;22.48;;
34019;SDS011;20895;51.034;3.742;2022-12-11T08:40:51;35.75;;;21.75;;
34019;SDS011;20895;51.034;3.742;2022-12-11T08:43:16;33.05;;;21.10;;
34019;SDS011;20895;51.034;3.742;2022-12-11T08:45:41;34.90;;;20.73;;
34019;SDS011;20895;51.034;3.742;2022-12-11T08:48:07;40.47;;;22.13;;
34019;SDS011;20895;51.034;3.742;2022-12-11T08:50:32;45.78;;;26.02;;
34019;SDS011;20895;51.034;3.742;2022-12-11T08:52:57;46.13;;;26.40;;
34019;SDS011;20895;51.034;3.742;2022-12-11T08:55:23;39.33;;;23.27;;
34019;SDS011;20895;51.034;3.742;2022-12-11T08:57:48;38.60;;;24.20;;
34019;SDS011;20895;51.034;3.742;2022-12-11T09:00:13;36.60;;;21.00;;
34019;SDS011;20895;51.034;3.742;2022-12-11T09:02:39;42.15;;;26.35;;
34019;SDS011;20895;51.034;3.742;2022-12-11T09:05:05;34.20;;;19.17;;
34019;SDS011;20895;51.034;3.742;2022-12-11T09:07:32;38.55;;;21.77;;
34019;SDS011;20895;51.034;3.742;2022-12-11T09:09:57;38.10;;;23.52;;
34019;SDS011;20895;51.034;3.742;2022-12-11T09:12:22;41.97;;;25.02;;
34019;SDS011;20895;51.034;3.742;2022-12-11T09:14:48;38.80;;;24.27;;
34019;SDS011;20895;51.034;3.742;2022-12-11T09:17:13;38.25;;;23.83;;
34019;SDS011;20895;51.034;3.742;2022-12-11T09:19:38;39.92;;;25.00;;
34019;SDS011;20895;51.034;3.742;2022-12-11T09:22:03;46.72;;;22.17;;
34019;SDS011;20895;51.034;3.742;2022-12-11T09:24:28;37.58;;;22.15;;
34019;SDS011;20895;51.034;3.742;2022-12-11T09:26:54;32.88;;;21.30;;
34019;SDS011;20895;51.034;3.742;2022-12-11T09:29:19;42.97;;;23.60;;
34019;SDS011;20895;51.034;3.742;2022-12-11T09:31:45;39.90;;;23.48;;
34019;SDS011;20895;51.034;3.742;2022-12-11T09:34:11;40.67;;;24.23;;
34019;SDS011;20895;51.034;3.742;2022-12-11T09:36:37;39.40;;;24.42;;
34019;SDS011;20895;51.034;3.742;2022-12-11T09:39:03;44.25;;;23.50;;
34019;SDS011;20895;51.034;3.742;2022-12-11T09:43:59;43.03;;;24.75;;
34019;SDS011;20895;51.034;3.742;2022-12-11T09:46:25;38.85;;;20.95;;
34019;SDS011;20895;51.034;3.742;2022-12-11T09:48:51;39.20;;;22.33;;
34019;SDS011;20895;51.034;3.742;2022-12-11T09:51:23;36.55;;;21.13;;
34019;SDS011;20895;51.034;3.742;2022-12-11T09:53:52;40.42;;;23.67;;
34019;SDS011;20895;51.034;3.742;2022-12-11T10:06:32;35.92;;;20.20;;
34019;SDS011;20895;51.034;3.742;2022-12-11T10:16:40;31.98;;;19.17;;
34019;SDS011;20895;51.034;3.742;2022-12-11T10:19:13;32.70;;;18.90;;
34019;SDS011;20895;51.034;3.742;2022-12-11T10:21:40;34.47;;;20.13;;
34019;SDS011;20895;51.034;3.742;2022-12-11T10:24:10;35.15;;;19.65;;
34019;SDS011;20895;51.034;3.742;2022-12-11T10:26:36;29.67;;;18.17;;
34019;SDS011;20895;51.034;3.742;2022-12-11T10:29:04;28.73;;;19.30;;
34019;SDS011;20895;51.034;3.742;2022-12-11T10:31:53;34.33;;;18.48;;
34019;SDS011;20895;51.034;3.742;2022-12-11T10:34:24;29.45;;;17.48;;
34019;SDS011;20895;51.034;3.742;2022-12-11T10:36:50;26.30;;;17.75;;
34019;SDS011;20895;51.034;3.742;2022-12-11T10:39:16;27.27;;;18.42;;
34019;SDS011;20895;51.034;3.742;2022-12-11T10:41:42;30.60;;;19.05;;
34019;SDS011;20895;51.034;3.742;2022-12-11T10:44:21;30.45;;;19.17;;
34019;SDS011;20895;51.034;3.742;2022-12-11T10:46:47;31.27;;;17.30;;
34019;SDS011;20895;51.034;3.742;2022-12-11T10:49:23;27.27;;;15.60;;
34019;SDS011;20895;51.034;3.742;2022-12-11T10:51:49;29.17;;;18.20;;
34019;SDS011;20895;51.034;3.742;2022-12-11T10:56:54;25.95;;;15.68;;
34019;SDS011;20895;51.034;3.742;2022-12-11T10:59:32;29.25;;;17.38;;
34019;SDS011;20895;51.034;3.742;2022-12-11T11:01:58;28.25;;;16.30;;
34019;SDS011;20895;51.034;3.742;2022-12-11T11:04:29;30.90;;;19.75;;
34019;SDS011;20895;51.034;3.742;2022-12-11T11:07:02;28.83;;;17.48;;
34019;SDS011;20895;51.034;3.742;2022-12-11T11:09:33;29.20;;;18.83;;
34019;SDS011;20895;51.034;3.742;2022-12-11T11:12:00;31.03;;;18.00;;
34019;SDS011;20895;51.034;3.742;2022-12-11T11:14:25;26.35;;;18.08;;
34019;SDS011;20895;51.034;3.742;2022-12-11T11:16:53;25.02;;;15.27;;
34019;SDS011;20895;51.034;3.742;2022-12-11T11:21:48;30.27;;;17.45;;
34019;SDS011;20895;51.034;3.742;2022-12-11T11:26:52;23.80;;;15.82;;
34019;SDS011;20895;51.034;3.742;2022-12-11T11:29:36;28.80;;;18.23;;
34019;SDS011;20895;51.034;3.742;2022-12-11T11:34:26;25.42;;;16.80;;
34019;SDS011;20895;51.034;3.742;2022-12-11T11:36:55;25.58;;;16.75;;
34019;SDS011;20895;51.034;3.742;2022-12-11T11:42:03;27.67;;;18.73;;
34019;SDS011;20895;51.034;3.742;2022-12-11T11:44:32;27.52;;;17.20;;
34019;SDS011;20895;51.034;3.742;2022-12-11T11:47:00;25.25;;;17.73;;
34019;SDS011;20895;51.034;3.742;2022-12-11T11:52:48;30.30;;;18.15;;
34019;SDS011;20895;51.034;3.742;2022-12-11T12:00:16;31.35;;;19.02;;
34019;SDS011;20895;51.034;3.742;2022-12-11T12:02:41;28.00;;;18.48;;
34019;SDS011;20895;51.034;3.742;2022-12-11T12:05:13;27.33;;;16.70;;
34019;SDS011;20895;51.034;3.742;2022-12-11T12:12:44;27.65;;;17.50;;
34019;SDS011;20895;51.034;3.742;2022-12-11T12:15:17;28.10;;;17.42;;
34019;SDS011;20895;51.034;3.742;2022-12-11T12:25:13;27.67;;;17.98;;
34019;SDS011;20895;51.034;3.742;2022-12-11T12:28:23;26.23;;;16.80;;
34019;SDS011;20895;51.034;3.742;2022-12-11T12:30:30;28.92;;;17.02;;
34019;SDS011;20895;51.034;3.742;2022-12-11T12:35:33;30.75;;;17.92;;
34019;SDS011;20895;51.034;3.742;2022-12-11T12:40:29;29.35;;;19.02;;
34019;SDS011;20895;51.034;3.742;2022-12-11T12:43:03;28.45;;;18.17;;
34019;SDS011;20895;51.034;3.742;2022-12-11T12:48:00;28.88;;;18.88;;
34019;SDS011;20895;51.034;3.742;2022-12-11T12:50:28;32.10;;;17.75;;
34019;SDS011;20895;51.034;3.742;2022-12-11T12:53:00;29.52;;;18.25;;
34019;SDS011;20895;51.034;3.742;2022-12-11T12:55:29;30.40;;;18.98;;
34019;SDS011;20895;51.034;3.742;2022-12-11T13:00:25;35.65;;;20.25;;
34019;SDS011;20895;51.034;3.742;2022-12-11T13:02:50;44.50;;;19.33;;
34019;SDS011;20895;51.034;3.742;2022-12-11T13:05:21;35.15;;;19.40;;
34019;SDS011;20895;51.034;3.742;2022-12-11T13:07:48;33.33;;;19.10;;
34019;SDS011;20895;51.034;3.742;2022-12-11T13:10:24;30.70;;;19.45;;
34019;SDS011;20895;51.034;3.742;2022-12-11T13:12:50;28.23;;;17.98;;
34019;SDS011;20895;51.034;3.742;2022-12-11T13:17:50;32.75;;;19.00;;
34019;SDS011;20895;51.034;3.742;2022-12-11T13:20:20;27.35;;;17.88;;
34019;SDS011;20895;51.034;3.742;2022-12-11T13:22:47;33.80;;;20.63;;
34019;SDS011;20895;51.034;3.742;2022-12-11T13:25:26;35.95;;;20.52;;
34019;SDS011;20895;51.034;3.742;2022-12-11T13:27:51;31.08;;;20.13;;
34019;SDS011;20895;51.034;3.742;2022-12-11T13:32:48;31.10;;;18.13;;
34019;SDS011;20895;51.034;3.742;2022-12-11T13:35:14;34.20;;;19.17;;
34019;SDS011;20895;51.034;3.742;2022-12-11T13:37:42;34.80;;;20.35;;
34019;SDS011;20895;51.034;3.742;2022-12-11T13:40:13;30.83;;;18.42;;
34019;SDS011;20895;51.034;3.742;2022-12-11T13:42:48;33.95;;;20.63;;
34019;SDS011;20895;51.034;3.742;2022-12-11T13:45:18;35.72;;;21.65;;
34019;SDS011;20895;51.034;3.742;2022-12-11T13:47:45;38.55;;;19.58;;
34019;SDS011;20895;51.034;3.742;2022-12-11T13:50:18;31.83;;;19.23;;
34019;SDS011;20895;51.034;3.742;2022-12-11T13:52:51;33.13;;;18.33;;
34019;SDS011;20895;51.034;3.742;2022-12-11T13:55:24;33.92;;;20.92;;
34019;SDS011;20895;51.034;3.742;2022-12-11T13:57:49;30.42;;;19.48;;
34019;SDS011;20895;51.034;3.742;2022-12-11T14:00:19;34.47;;;19.10;;
34019;SDS011;20895;51.034;3.742;2022-12-11T14:02:45;38.00;;;22.27;;
34019;SDS011;20895;51.034;3.742;2022-12-11T14:05:10;35.92;;;20.88;;
34019;SDS011;20895;51.034;3.742;2022-12-11T14:07:40;35.60;;;20.73;;
34019;SDS011;20895;51.034;3.742;2022-12-11T14:10:08;29.75;;;19.13;;
34019;SDS011;20895;51.034;3.742;2022-12-11T14:12:37;28.60;;;17.05;;
34019;SDS011;20895;51.034;3.742;2022-12-11T14:15:10;25.90;;;16.58;;
34019;SDS011;20895;51.034;3.742;2022-12-11T14:17:38;28.05;;;17.17;;
34019;SDS011;20895;51.034;3.742;2022-12-11T14:20:05;28.38;;;17.77;;
34019;SDS011;20895;51.034;3.742;2022-12-11T14:22:38;25.60;;;16.55;;
34019;SDS011;20895;51.034;3.742;2022-12-11T14:25:15;27.17;;;17.42;;
34019;SDS011;20895;51.034;3.742;2022-12-11T14:27:46;27.58;;;16.70;;
34019;SDS011;20895;51.034;3.742;2022-12-11T14:30:11;28.45;;;19.40;;
34019;SDS011;20895;51.034;3.742;2022-12-11T14:32:38;34.63;;;20.50;;
34019;SDS011;20895;51.034;3.742;2022-12-11T14:35:07;35.05;;;21.45;;
34019;SDS011;20895;51.034;3.742;2022-12-11T14:37:41;34.92;;;21.42;;
34019;SDS011;20895;51.034;3.742;2022-12-11T14:40:07;33.25;;;19.73;;
34019;SDS011;20895;51.034;3.742;2022-12-11T14:42:41;32.33;;;20.42;;
34019;SDS011;20895;51.034;3.742;2022-12-11T14:45:11;28.65;;;18.17;;
34019;SDS011;20895;51.034;3.742;2022-12-11T14:47:41;25.08;;;17.23;;
34019;SDS011;20895;51.034;3.742;2022-12-11T14:50:07;30.75;;;18.70;;
34019;SDS011;20895;51.034;3.742;2022-12-11T14:52:37;26.75;;;17.75;;
34019;SDS011;20895;51.034;3.742;2022-12-11T14:55:07;28.70;;;19.17;;
34019;SDS011;20895;51.034;3.742;2022-12-11T14:57:34;30.67;;;17.42;;
34019;SDS011;20895;51.034;3.742;2022-12-11T15:00:00;33.47;;;19.60;;
34019;SDS011;20895;51.034;3.742;2022-12-11T15:02:32;34.22;;;18.80;;
34019;SDS011;20895;51.034;3.742;2022-12-11T15:05:00;30.88;;;18.98;;
34019;SDS011;20895;51.034;3.742;2022-12-11T15:07:26;27.02;;;17.88;;
34019;SDS011;20895;51.034;3.742;2022-12-11T15:09:51;29.10;;;18.08;;
34019;SDS011;20895;51.034;3.742;2022-12-11T15:12:17;29.58;;;19.23;;
34019;SDS011;20895;51.034;3.742;2022-12-11T15:14:47;27.83;;;18.50;;
34019;SDS011;20895;51.034;3.742;2022-12-11T15:17:14;27.30;;;17.80;;
34019;SDS011;20895;51.034;3.742;2022-12-11T15:19:39;30.15;;;19.05;;
34019;SDS011;20895;51.034;3.742;2022-12-11T15:22:05;33.08;;;20.95;;
34019;SDS011;20895;51.034;3.742;2022-12-11T15:24:35;29.17;;;18.63;;
34019;SDS011;20895;51.034;3.742;2022-12-11T15:27:01;33.00;;;19.88;;
34019;SDS011;20895;51.034;3.742;2022-12-11T15:29:31;30.67;;;20.50;;
34019;SDS011;20895;51.034;3.742;2022-12-11T15:34:32;30.65;;;19.60;;
34019;SDS011;20895;51.034;3.742;2022-12-11T15:36:57;28.52;;;18.95;;
34019;SDS011;20895;51.034;3.742;2022-12-11T15:39:23;28.60;;;17.42;;
34019;SDS011;20895;51.034;3.742;2022-12-11T15:41:48;29.65;;;18.23;;
34019;SDS011;20895;51.034;3.742;2022-12-11T15:44:15;33.75;;;17.70;;
34019;SDS011;20895;51.034;3.742;2022-12-11T15:46:42;25.15;;;17.08;;
34019;SDS011;20895;51.034;3.742;2022-12-11T15:49:11;26.13;;;17.08;;
34019;SDS011;20895;51.034;3.742;2022-12-11T15:51:36;29.42;;;17.35;;